createdAt,value
2019-06-27T00:00:53.630Z,94.11
2019-06-27T00:01:53.606Z,94.93
2019-06-27T00:02:53.589Z,94.11
2019-06-27T00:03:53.575Z,94.40
2019-06-27T00:04:53.565Z,94.88
2019-06-27T00:05:53.546Z,94.31
2019-06-27T00:06:53.530Z,94.01
2019-06-27T00:07:53.512Z,94.31
2019-06-27T00:08:53.496Z,94.40
2019-06-27T00:09:53.483Z,94.54
2019-06-27T00:10:53.483Z,93.87
2019-06-27T00:11:53.451Z,93.73
2019-06-27T00:12:53.434Z,93.63
2019-06-27T00:13:53.427Z,93.73
2019-06-27T00:14:53.411Z,94.54
2019-06-27T00:15:53.502Z,93.63
2019-06-27T00:16:53.373Z,94.49
2019-06-27T00:17:53.358Z,94.59
2019-06-27T00:18:53.352Z,94.31
2019-06-27T00:19:53.326Z,93.96
2019-06-27T00:20:53.321Z,93.54
2019-06-27T00:21:53.311Z,93.77
2019-06-27T00:22:53.291Z,93.34
2019-06-27T00:23:53.265Z,93.34
2019-06-27T00:24:53.257Z,93.15
2019-06-27T00:25:53.233Z,94.01
2019-06-27T00:26:57.542Z,93.82
2019-06-27T00:27:53.215Z,94.21
2019-06-27T00:28:53.242Z,94.40
2019-06-27T00:29:53.186Z,94.78
2019-06-27T00:30:53.158Z,94.69
2019-06-27T00:31:53.144Z,94.31
2019-06-27T00:32:53.130Z,94.01
2019-06-27T00:33:53.113Z,94.78
2019-06-27T00:34:53.096Z,94.69
2019-06-27T00:35:53.083Z,93.92
2019-06-27T00:36:53.066Z,93.92
2019-06-27T00:37:53.053Z,93.92
2019-06-27T00:38:53.032Z,93.44
2019-06-27T00:39:53.023Z,94.01
2019-06-27T00:40:53.002Z,94.01
2019-06-27T00:41:52.990Z,94.31
2019-06-27T00:42:52.973Z,94.31
2019-06-27T00:43:52.964Z,93.82
2019-06-27T00:44:52.938Z,93.92
2019-06-27T00:45:52.926Z,93.73
2019-06-27T00:46:52.914Z,93.82
2019-06-27T00:47:52.899Z,93.73
2019-06-27T00:48:52.899Z,93.92
2019-06-27T00:49:52.864Z,93.63
2019-06-27T00:50:52.850Z,92.77
2019-06-27T00:51:52.835Z,93.15
2019-06-27T00:52:52.817Z,93.05
2019-06-27T00:53:52.800Z,93.92
2019-06-27T00:54:52.784Z,94.26
2019-06-27T00:55:52.772Z,94.45
2019-06-27T00:57:50.307Z,93.59
2019-06-27T00:59:23.503Z,93.87
2019-06-27T01:00:23.477Z,94.64
2019-06-27T01:00:50.254Z,93.77
2019-06-27T01:01:50.239Z,94.45
2019-06-27T01:02:50.222Z,94.07
2019-06-27T01:03:50.206Z,93.68
2019-06-27T01:04:50.197Z,93.34
2019-06-27T01:05:50.175Z,93.49
2019-06-27T01:06:50.160Z,94.45
2019-06-27T01:07:50.143Z,93.97
2019-06-27T01:08:50.149Z,94.16
2019-06-27T01:09:50.121Z,94.07
2019-06-27T01:11:23.306Z,93.97
2019-06-27T01:11:50.081Z,94.16
2019-06-27T01:12:50.078Z,93.82
2019-06-27T01:13:50.058Z,93.59
2019-06-27T01:14:50.034Z,94.26
2019-06-27T01:15:50.053Z,94.45
2019-06-27T01:19:27.671Z,94.01
2019-06-27T01:20:27.609Z,92.63
2019-06-27T01:21:27.587Z,93.30
2019-06-27T01:22:27.577Z,93.77
2019-06-27T01:23:27.555Z,94.35
2019-06-27T01:26:35.758Z,92.63
2019-06-27T01:27:34.051Z,93.20
2019-06-27T01:29:30.168Z,93.30
2019-06-27T01:30:30.143Z,93.87
2019-06-27T01:31:30.133Z,93.39
2019-06-27T01:33:03.326Z,93.49
2019-06-27T01:34:17.634Z,92.53
2019-06-27T01:35:17.610Z,92.82
2019-06-27T01:36:17.592Z,93.01
2019-06-27T01:37:50.795Z,92.72
2019-06-27T01:38:17.561Z,92.53
2019-06-27T01:40:00.067Z,92.53
2019-06-27T01:41:00.049Z,93.10
2019-06-27T01:42:00.034Z,92.72
2019-06-27T01:43:33.228Z,92.77
2019-06-27T01:44:47.533Z,92.63
2019-06-27T01:45:47.517Z,92.53
2019-06-27T01:46:47.505Z,93.30
2019-06-27T01:48:20.694Z,93.97
2019-06-27T01:49:30.799Z,92.53
2019-06-27T01:50:29.974Z,93.01
2019-06-27T01:51:29.970Z,92.91
2019-06-27T01:54:13.638Z,92.53
2019-06-27T01:55:47.498Z,92.82
2019-06-27T01:57:57.367Z,93.30
2019-06-27T01:59:30.559Z,93.01
2019-06-27T02:01:41.024Z,92.72
2019-06-27T02:03:14.216Z,93.10
2019-06-27T02:05:24.692Z,94.07
2019-06-27T03:55:32.155Z,90.13
2019-06-27T03:55:58.944Z,89.61
2019-06-27T03:56:58.911Z,89.84
2019-06-27T03:57:58.906Z,90.03
2019-06-27T03:59:11.680Z,89.99
2019-06-27T03:59:58.863Z,90.28
2019-06-27T04:00:58.868Z,90.37
2019-06-27T04:01:58.839Z,91.05
2019-06-27T04:02:58.814Z,90.95
2019-06-27T04:03:58.826Z,91.33
2019-06-27T04:04:58.792Z,92.10
2019-06-27T04:05:58.776Z,91.72
2019-06-27T04:06:58.756Z,91.05
2019-06-27T04:07:58.737Z,91.09
2019-06-27T04:08:58.721Z,90.56
2019-06-27T04:09:58.706Z,90.85
2019-06-27T04:10:58.691Z,90.85
2019-06-27T04:11:58.671Z,90.95
2019-06-27T04:12:58.696Z,90.56
2019-06-27T04:13:58.646Z,90.28
2019-06-27T04:14:58.633Z,90.85
2019-06-27T04:15:58.609Z,90.66
2019-06-27T04:16:58.595Z,90.56
2019-06-27T04:17:58.580Z,90.18
2019-06-27T04:18:58.560Z,91.42
2019-06-27T04:19:58.543Z,90.42
2019-06-27T04:20:58.528Z,90.32
2019-06-27T04:21:58.511Z,89.89
2019-06-27T04:22:58.547Z,90.42
2019-06-27T04:23:58.481Z,90.80
2019-06-27T04:24:58.469Z,89.84
2019-06-27T04:25:58.460Z,90.42
2019-06-27T04:26:58.431Z,89.55
2019-06-27T04:28:00.083Z,89.17
2019-06-27T04:28:58.400Z,89.17
2019-06-27T04:29:58.389Z,89.75
2019-06-27T04:30:58.369Z,92.63
2019-06-27T04:31:58.352Z,92.97
2019-06-27T04:32:58.336Z,93.88
2019-06-27T04:33:58.336Z,94.12
2019-06-27T04:34:58.309Z,94.02
2019-06-27T04:35:58.319Z,93.16
2019-06-27T04:36:58.276Z,92.68
2019-06-27T04:37:58.255Z,92.10
2019-06-27T04:38:58.240Z,91.91
2019-06-27T04:39:58.224Z,93.78
2019-06-27T04:40:58.211Z,93.73
2019-06-27T04:41:58.207Z,93.44
2019-06-27T04:42:58.176Z,93.63
2019-06-27T04:43:58.171Z,93.69
2019-06-27T04:44:58.149Z,94.21
2019-06-27T04:45:58.141Z,93.83
2019-06-27T04:46:58.114Z,93.93
2019-06-27T04:47:58.097Z,93.06
2019-06-27T04:48:58.108Z,93.06
2019-06-27T04:49:58.063Z,92.68
2019-06-27T04:50:58.046Z,92.82
2019-06-27T04:51:58.031Z,91.96
2019-06-27T04:52:58.020Z,91.86
2019-06-27T04:53:57.999Z,90.56
2019-06-27T04:55:02.861Z,90.85
2019-06-27T04:55:57.967Z,89.75
2019-06-27T04:56:57.957Z,89.79
2019-06-27T04:57:57.940Z,89.41
2019-06-27T04:58:57.920Z,89.51
2019-06-27T04:59:57.904Z,88.74
2019-06-27T05:00:57.903Z,88.84
2019-06-27T05:01:57.877Z,87.59
2019-06-27T05:02:57.859Z,87.74
2019-06-27T05:03:57.851Z,87.74
2019-06-27T05:04:57.823Z,87.68
2019-06-27T05:05:57.811Z,87.35
2019-06-27T05:06:57.789Z,87.01
2019-06-27T05:07:57.776Z,87.49
2019-06-27T05:08:57.769Z,87.21
2019-06-27T05:09:57.751Z,85.96
2019-06-27T05:10:57.728Z,84.91
2019-06-27T05:11:57.712Z,84.81
2019-06-27T05:12:57.698Z,84.91
2019-06-27T05:13:57.687Z,84.52
2019-06-27T05:14:57.661Z,84.42
2019-06-27T05:15:57.653Z,84.81
2019-06-27T05:16:57.630Z,85.67
2019-06-27T05:17:57.625Z,84.71
2019-06-27T05:18:57.605Z,83.75
2019-06-27T05:19:57.590Z,85.28
2019-06-27T05:20:57.568Z,85.34
2019-06-27T05:21:57.553Z,87.64
2019-06-27T05:22:57.539Z,86.54
2019-06-27T05:23:57.532Z,87.74
2019-06-27T05:24:57.514Z,87.64
2019-06-27T05:25:57.515Z,86.82
2019-06-27T05:26:57.473Z,85.96
2019-06-27T05:27:57.458Z,85.38
2019-06-27T05:28:57.549Z,84.52
2019-06-27T05:30:08.807Z,84.47
2019-06-27T05:30:57.419Z,83.80
2019-06-27T05:31:57.414Z,84.52
2019-06-27T05:32:57.380Z,85.00
2019-06-27T05:33:57.364Z,84.67
2019-06-27T05:34:57.352Z,85.63
2019-06-27T05:35:57.350Z,87.26
2019-06-27T05:36:57.318Z,86.49
2019-06-27T05:37:57.317Z,87.26
2019-06-27T05:38:57.284Z,86.21
2019-06-27T05:39:57.273Z,86.25
2019-06-27T05:40:57.255Z,87.50
2019-06-27T05:41:57.249Z,86.68
2019-06-27T05:42:57.225Z,85.48
2019-06-27T05:43:57.213Z,85.19
2019-06-27T05:44:57.338Z,84.42
2019-06-27T05:45:57.181Z,83.75
2019-06-27T05:46:57.162Z,83.27
2019-06-27T05:47:57.217Z,83.98
2019-06-27T05:48:57.131Z,82.07
2019-06-27T05:49:57.123Z,82.16
2019-06-27T05:50:57.098Z,82.84
2019-06-27T05:51:57.085Z,83.18
2019-06-27T05:52:57.070Z,83.94
2019-06-27T05:53:57.052Z,83.94
2019-06-27T05:54:57.037Z,83.18
2019-06-27T05:55:57.038Z,81.76
2019-06-27T05:56:57.007Z,77.67
2019-06-27T05:57:56.991Z,77.44
2019-06-27T05:58:56.977Z,77.11
2019-06-27T05:59:56.982Z,78.99
2019-06-27T06:01:39.469Z,79.86
2019-06-27T06:02:39.454Z,80.24
2019-06-27T06:03:39.440Z,80.91
2019-06-27T06:04:39.462Z,80.34
2019-06-27T06:05:39.420Z,80.15
2019-06-27T06:06:39.426Z,79.42
2019-06-27T06:08:21.966Z,80.24
2019-06-27T06:09:21.969Z,80.86
2019-06-27T06:10:21.960Z,80.28
2019-06-27T06:11:55.140Z,79.71
2019-06-27T06:13:04.434Z,79.94
2019-06-27T06:14:04.417Z,76.81
2019-06-27T06:15:04.408Z,76.81
2019-06-27T06:17:17.548Z,77.73
2019-06-27T06:18:17.543Z,77.63
2019-06-27T06:19:17.524Z,76.75
2019-06-27T06:20:50.776Z,73.71
2019-06-27T06:21:17.517Z,71.47
2019-06-27T06:22:17.478Z,70.60
2019-06-27T06:23:17.471Z,72.20
2019-06-27T06:24:59.981Z,72.49
2019-06-27T06:26:00.373Z,70.56
2019-06-27T06:28:07.517Z,69.96
2019-06-27T06:29:07.521Z,68.65
2019-06-27T06:31:51.401Z,67.94
2019-06-27T06:32:51.379Z,69.15
2019-06-27T06:36:23.379Z,62.12
2019-06-27T06:39:07.062Z,59.92
2019-06-27T06:41:55.752Z,58.92
2019-06-27T06:45:27.011Z,55.68
2019-06-27T06:48:10.677Z,56.21
2019-06-27T06:50:54.446Z,57.51
2019-06-27T06:53:38.132Z,61.93
2019-06-27T06:56:21.825Z,65.40
2019-06-27T08:37:06.827Z,60.38
2019-06-27T08:38:40.021Z,60.13
2019-06-27T08:39:06.804Z,60.03
2019-06-27T08:40:06.792Z,59.93
2019-06-27T08:41:06.786Z,59.61
2019-06-27T08:42:06.772Z,59.83
2019-06-27T08:43:06.760Z,59.90
2019-06-27T08:44:06.751Z,59.74
2019-06-27T08:45:49.318Z,60.77
2019-06-27T08:47:22.517Z,60.19
2019-06-27T08:47:49.301Z,60.48
2019-06-27T08:48:49.330Z,60.31
2019-06-27T08:50:22.485Z,60.25
2019-06-27T08:50:49.360Z,58.80
2019-06-27T08:52:36.786Z,59.06
2019-06-27T08:54:09.996Z,60.55
2019-06-27T08:54:36.762Z,61.96
2019-06-27T08:55:36.796Z,63.70
2019-06-27T08:57:09.954Z,64.08
2019-06-27T08:57:36.731Z,63.98
2019-06-27T08:58:36.767Z,63.92
2019-06-27T08:59:36.710Z,63.54
2019-06-27T09:00:36.698Z,63.18
2019-06-27T09:01:36.699Z,61.96
2019-06-27T09:02:36.691Z,60.73
2019-06-27T09:03:36.712Z,59.19
2019-06-27T09:04:36.660Z,58.70
2019-06-27T09:05:36.650Z,59.55
2019-06-27T09:06:36.639Z,60.31
2019-06-27T09:07:36.643Z,60.89
2019-06-27T09:08:36.624Z,59.74
2019-06-27T09:09:36.617Z,59.09
2019-06-27T09:10:36.639Z,59.09
2019-06-27T09:12:23.034Z,58.42
2019-06-27T09:13:20.404Z,58.70
2019-06-27T09:14:20.385Z,57.93
2019-06-27T09:15:53.588Z,59.25
2019-06-27T09:18:04.078Z,58.22
2019-06-27T09:19:04.086Z,58.06
2019-06-27T09:20:04.060Z,57.54
2019-06-27T09:21:37.265Z,57.74
2019-06-27T09:23:47.772Z,57.38
2019-06-27T09:24:47.755Z,56.90
2019-06-27T09:25:47.735Z,57.19
2019-06-27T09:27:20.934Z,56.63
2019-06-27T09:29:31.575Z,56.35
2019-06-27T09:30:31.566Z,56.25
2019-06-27T09:31:31.605Z,55.70
2019-06-27T09:33:04.766Z,55.82
2019-06-27T09:35:15.247Z,56.05
2019-06-27T09:36:15.244Z,56.83
2019-06-27T09:37:15.238Z,56.80
2019-06-27T09:38:48.437Z,55.77
2019-06-27T09:40:59.057Z,55.89
2019-06-27T09:42:32.146Z,56.47
2019-06-27T09:43:32.132Z,55.82
2019-06-27T09:45:42.620Z,53.89
2019-06-27T09:47:15.848Z,54.73
2019-06-27T09:48:15.826Z,55.05
2019-06-27T09:50:26.311Z,54.90
2019-06-27T09:51:59.518Z,55.79
2019-06-27T09:52:59.515Z,55.05
2019-06-27T09:55:10.170Z,53.26
2019-06-27T09:56:43.369Z,52.49
2019-06-27T11:41:04.327Z,46.05
2019-06-27T11:41:31.099Z,46.34
2019-06-27T11:42:31.179Z,45.81
2019-06-27T11:44:04.317Z,46.71
2019-06-27T11:44:31.109Z,46.13
2019-06-27T11:45:31.120Z,46.42
2019-06-27T11:46:31.122Z,46.40
2019-06-27T11:47:34.242Z,47.27
2019-06-27T11:48:31.133Z,47.56
2019-06-27T11:49:31.118Z,47.39
2019-06-27T11:50:31.119Z,47.39
2019-06-27T11:51:31.138Z,47.66
2019-06-27T11:52:31.123Z,47.66
2019-06-27T11:53:31.541Z,47.66
2019-06-27T11:54:31.124Z,47.54
2019-06-27T11:55:31.126Z,47.74
2019-06-27T11:56:31.130Z,47.93
2019-06-27T11:57:31.122Z,48.58
2019-06-27T11:58:31.122Z,49.15
2019-06-27T11:59:31.128Z,49.32
2019-06-27T12:00:31.109Z,50.26
2019-06-27T12:01:31.128Z,51.23
2019-06-27T12:02:31.111Z,51.57
2019-06-27T12:03:31.102Z,52.83
2019-06-27T12:04:31.097Z,52.93
2019-06-27T12:05:31.091Z,53.02
2019-06-27T12:06:31.101Z,53.24
2019-06-27T12:07:31.100Z,52.95
2019-06-27T12:08:31.247Z,52.28
2019-06-27T12:09:31.222Z,51.47
2019-06-27T12:10:31.076Z,51.47
2019-06-27T12:11:31.061Z,52.12
2019-06-27T12:12:31.070Z,52.71
2019-06-27T12:13:31.049Z,52.22
2019-06-27T12:14:31.041Z,52.80
2019-06-27T12:15:31.037Z,54.26
2019-06-27T12:16:31.041Z,53.61
2019-06-27T12:17:31.025Z,52.93
2019-06-27T12:18:31.041Z,53.02
2019-06-27T12:19:31.019Z,53.22
2019-06-27T12:20:31.007Z,52.93
2019-06-27T12:22:32.212Z,52.73
2019-06-27T12:24:29.813Z,53.97
2019-06-27T12:30:23.577Z,55.90
2019-06-27T12:31:56.728Z,54.16
2019-06-27T12:32:23.438Z,54.43
2019-06-27T12:33:23.432Z,55.10
2019-06-27T12:35:11.021Z,54.35
2019-06-27T12:36:44.253Z,54.48
2019-06-27T12:37:44.154Z,54.38
2019-06-27T12:38:44.132Z,53.80
2019-06-27T12:39:11.112Z,53.15
2019-06-27T12:40:10.935Z,53.24
2019-06-27T12:41:10.894Z,53.24
2019-06-27T12:42:10.884Z,53.97
2019-06-27T12:43:44.085Z,54.23
2019-06-27T12:44:10.864Z,55.98
2019-06-27T12:45:10.863Z,56.16
2019-06-27T12:46:10.851Z,55.71
2019-06-27T12:47:10.846Z,55.52
2019-06-27T12:48:44.051Z,55.04
2019-06-27T12:50:00.581Z,55.54
2019-06-27T12:50:10.811Z,54.77
2019-06-27T12:51:10.798Z,54.38
2019-06-27T12:52:10.813Z,54.28
2019-06-27T12:53:10.780Z,53.97
2019-06-27T12:54:10.787Z,54.45
2019-06-27T12:55:43.969Z,54.86
2019-06-27T12:56:10.756Z,54.48
2019-06-27T12:57:10.757Z,54.77
2019-06-27T12:58:10.734Z,54.58
2019-06-27T12:59:10.799Z,54.48
2019-06-27T13:00:10.711Z,54.21
2019-06-27T13:01:10.880Z,54.48
2019-06-27T13:02:11.711Z,54.58
2019-06-27T13:03:10.683Z,54.21
2019-06-27T13:04:22.919Z,54.31
2019-06-27T13:05:10.679Z,54.50
2019-06-27T13:06:10.657Z,54.60
2019-06-27T13:07:10.643Z,54.09
2019-06-27T13:08:10.625Z,54.58
2019-06-27T13:09:10.634Z,54.38
2019-06-27T13:10:10.614Z,54.19
2019-06-27T13:11:10.594Z,55.16
2019-06-27T13:12:10.668Z,55.35
2019-06-27T13:13:10.582Z,55.26
2019-06-27T13:14:10.590Z,55.16
2019-06-27T13:15:10.553Z,54.77
2019-06-27T13:16:10.550Z,54.70
2019-06-27T13:17:10.540Z,54.70
2019-06-27T13:18:10.558Z,54.48
2019-06-27T13:19:10.511Z,54.90
2019-06-27T13:20:10.502Z,54.50
2019-06-27T13:21:10.493Z,54.77
2019-06-27T13:22:10.482Z,54.48
2019-06-27T13:23:10.493Z,54.77
2019-06-27T13:24:10.459Z,54.86
2019-06-27T13:25:10.448Z,54.28
2019-06-27T13:26:10.452Z,54.86
2019-06-27T13:27:10.425Z,55.98
2019-06-27T13:28:10.430Z,56.20
2019-06-27T13:29:10.408Z,55.93
2019-06-27T13:30:10.398Z,54.96
2019-06-27T13:31:10.492Z,54.50
2019-06-27T13:32:10.376Z,54.02
2019-06-27T13:33:10.394Z,54.11
2019-06-27T13:34:10.358Z,53.63
2019-06-27T13:35:10.390Z,54.02
2019-06-27T13:36:10.332Z,54.21
2019-06-27T13:37:10.324Z,54.02
2019-06-27T13:38:10.314Z,54.02
2019-06-27T13:39:10.320Z,54.02
2019-06-27T13:40:10.291Z,54.31
2019-06-27T13:41:10.285Z,54.28
2019-06-27T13:42:10.275Z,54.67
2019-06-27T13:43:10.263Z,54.86
2019-06-27T13:44:10.245Z,55.06
2019-06-27T13:45:10.246Z,55.93
2019-06-27T13:46:10.225Z,55.64
2019-06-27T13:47:10.213Z,55.64
2019-06-27T13:48:10.216Z,55.83
2019-06-27T13:49:10.191Z,55.54
2019-06-27T13:50:10.185Z,55.54
2019-06-27T13:51:10.171Z,55.74
2019-06-27T13:52:10.174Z,56.03
2019-06-27T13:53:10.155Z,55.06
2019-06-27T13:54:10.136Z,54.77
2019-06-27T13:55:10.181Z,55.93
2019-06-27T13:56:10.157Z,55.83
2019-06-27T13:57:10.117Z,55.93
2019-06-27T13:58:10.124Z,55.64
2019-06-27T13:59:10.093Z,54.86
2019-06-27T14:00:10.095Z,55.16
2019-06-27T14:01:11.094Z,54.99
2019-06-27T14:02:10.070Z,54.67
2019-06-27T14:03:10.110Z,54.09
2019-06-27T14:04:10.039Z,54.67
2019-06-27T14:05:10.017Z,54.67
2019-06-27T14:06:10.006Z,54.19
2019-06-27T14:07:10.000Z,53.89
2019-06-27T14:08:09.986Z,53.89
2019-06-27T14:09:22.443Z,54.28
2019-06-27T14:10:09.961Z,54.48
2019-06-27T14:11:09.957Z,54.28
2019-06-27T14:12:09.953Z,54.58
2019-06-27T14:13:52.461Z,54.77
2019-06-27T14:14:59.770Z,54.86
2019-06-27T14:15:52.456Z,54.19
2019-06-27T14:20:25.681Z,54.09
2019-06-27T14:21:25.679Z,54.28
2019-06-27T14:22:33.509Z,54.28
2019-06-27T14:24:41.384Z,54.09
2019-06-27T14:25:08.151Z,54.19
2019-06-27T14:26:41.350Z,54.02
2019-06-27T14:27:08.130Z,53.92
2019-06-27T14:28:08.179Z,54.31
2019-06-27T14:31:25.020Z,56.03
2019-06-27T14:31:51.799Z,56.03
2019-06-27T14:33:24.999Z,55.74
2019-06-27T14:33:51.797Z,55.54
2019-06-27T14:34:51.763Z,55.71
2019-06-27T14:38:08.677Z,55.98
2019-06-27T14:39:08.653Z,56.36
2019-06-27T14:39:35.433Z,56.75
2019-06-27T14:40:35.418Z,56.97
2019-06-27T14:41:35.406Z,56.39
2019-06-27T16:25:29.957Z,60.69
2019-06-27T16:28:13.642Z,61.72
2019-06-27T16:30:57.379Z,61.24
2019-06-27T16:33:41.075Z,61.33
2019-06-27T16:36:26.220Z,62.88
2019-06-27T16:37:58.170Z,62.79
2019-06-27T16:38:24.733Z,62.21
2019-06-27T16:39:24.734Z,62.21
2019-06-27T16:40:24.707Z,62.69
2019-06-27T16:41:24.692Z,62.21
2019-06-27T16:42:24.687Z,62.59
2019-06-27T16:43:24.667Z,62.40
2019-06-27T16:44:24.677Z,62.88
2019-06-27T16:45:24.656Z,62.98
2019-06-27T16:46:24.634Z,62.95
2019-06-27T16:47:24.617Z,62.47
2019-06-27T16:48:24.625Z,62.66
2019-06-27T16:49:24.609Z,63.08
2019-06-27T16:50:24.587Z,62.21
2019-06-27T16:51:24.585Z,61.21
2019-06-27T16:52:24.575Z,62.27
2019-06-27T16:53:24.550Z,62.27
2019-06-27T16:54:24.529Z,61.89
2019-06-27T16:55:24.524Z,61.98
2019-06-27T16:56:24.514Z,62.47
2019-06-27T16:57:24.497Z,62.18
2019-06-27T16:58:24.486Z,61.98
2019-06-27T16:59:24.477Z,62.18
2019-06-27T17:00:24.456Z,62.47
2019-06-27T17:01:24.591Z,62.95
2019-06-27T17:02:24.435Z,61.98
2019-06-27T17:03:24.429Z,61.98
2019-06-27T17:04:24.401Z,62.18
2019-06-27T17:05:24.392Z,62.66
2019-06-27T17:06:40.457Z,62.56
2019-06-27T17:07:24.364Z,61.98
2019-06-27T17:08:24.351Z,62.37
2019-06-27T17:09:24.347Z,62.08
2019-06-27T17:10:24.325Z,62.18
2019-06-27T17:11:24.312Z,61.89
2019-06-27T17:12:24.317Z,62.08
2019-06-27T17:13:24.310Z,62.34
2019-06-27T17:14:24.332Z,62.73
2019-06-27T17:16:37.026Z,62.92
2019-06-27T17:17:37.002Z,62.73
2019-06-27T17:19:10.200Z,63.11
2019-06-27T17:19:36.986Z,63.69
2019-06-27T17:20:36.978Z,63.69
2019-06-27T17:23:53.866Z,64.18
2019-06-27T17:26:11.333Z,64.63
2019-06-27T17:27:06.967Z,64.72
2019-06-27T17:27:33.758Z,65.01
2019-06-27T17:28:35.327Z,64.82
2019-06-27T17:31:50.614Z,65.37
2019-06-27T17:32:50.611Z,66.05
2019-06-27T17:33:17.398Z,66.72
2019-06-27T17:34:17.405Z,66.53
2019-06-27T17:37:34.260Z,65.40
2019-06-27T17:38:34.247Z,64.53
2019-06-27T17:39:01.065Z,65.01
2019-06-27T17:40:01.003Z,64.43
2019-06-27T17:43:17.900Z,62.92
2019-06-27T17:44:19.969Z,62.98
2019-06-27T17:44:44.668Z,62.89
2019-06-27T17:45:44.652Z,63.28
2019-06-27T17:49:01.554Z,63.76
2019-06-27T17:50:01.539Z,63.28
2019-06-27T17:50:28.310Z,62.89
2019-06-27T17:51:28.295Z,62.40
2019-06-27T17:54:45.212Z,62.50
2019-06-27T19:20:45.191Z,69.77
2019-06-27T19:22:45.551Z,70.92
2019-06-27T19:24:57.236Z,70.83
2019-06-27T19:26:30.437Z,71.02
2019-06-27T19:28:40.377Z,72.05
2019-06-27T19:30:44.097Z,72.63
2019-06-27T19:32:01.128Z,73.65
2019-06-27T19:33:01.158Z,74.13
2019-06-27T19:34:01.105Z,74.67
2019-06-27T19:34:27.892Z,75.54
2019-06-27T19:35:27.874Z,75.44
2019-06-27T19:36:27.909Z,76.21
2019-06-27T19:37:27.831Z,75.92
2019-06-27T19:38:27.831Z,77.08
2019-06-27T19:39:27.815Z,76.98
2019-06-27T19:40:27.798Z,75.92
2019-06-27T19:41:27.856Z,76.88
2019-06-27T19:42:27.755Z,77.26
2019-06-27T19:43:28.451Z,77.36
2019-06-27T19:44:27.738Z,76.88
2019-06-27T19:45:27.728Z,76.98
2019-06-27T19:46:27.706Z,77.46
2019-06-27T20:00:39.682Z,77.51
2019-06-27T20:04:58.432Z,77.86
2019-06-27T20:05:25.208Z,79.11
2019-06-27T20:07:55.939Z,79.36
2019-06-27T20:08:55.930Z,79.98
2019-06-27T20:09:23.915Z,79.98
2019-06-27T20:10:22.671Z,79.50
2019-06-27T20:11:22.660Z,79.46
2019-06-27T20:12:22.640Z,79.65
2019-06-27T20:13:22.630Z,79.84
2019-06-27T20:14:22.604Z,79.88
2019-06-27T20:15:22.625Z,79.40
2019-06-27T20:16:22.588Z,79.50
2019-06-27T20:17:22.568Z,79.46
2019-06-27T20:18:22.544Z,79.50
2019-06-27T20:20:43.268Z,78.63
2019-06-27T20:21:43.291Z,78.83
2019-06-27T20:22:10.029Z,79.17
2019-06-27T20:23:10.018Z,79.17
2019-06-27T20:24:10.008Z,78.88
2019-06-27T20:25:43.197Z,79.17
2019-06-27T20:26:43.181Z,79.75
2019-06-27T20:27:09.955Z,79.84
2019-06-27T20:28:13.977Z,79.75
2019-06-27T20:29:09.943Z,79.55
2019-06-27T20:30:09.936Z,79.65
2019-06-27T20:35:06.943Z,79.65
2019-06-27T20:36:06.911Z,79.46
2019-06-27T20:36:33.681Z,79.94
2019-06-27T20:37:33.681Z,80.13
2019-06-27T20:38:35.302Z,80.04
2019-06-27T20:40:06.846Z,80.32
2019-06-27T20:41:06.841Z,79.94
2019-06-27T20:42:06.808Z,80.32
2019-06-27T20:42:33.604Z,80.38
2019-06-27T20:43:33.569Z,81.15
2019-06-27T20:45:06.769Z,80.57
2019-06-27T20:45:33.549Z,80.47
2019-06-27T20:46:33.527Z,81.05
2019-06-27T20:47:33.549Z,81.34
2019-06-27T20:48:33.495Z,81.63
2019-06-27T20:49:33.480Z,81.24
2019-06-27T20:50:33.467Z,81.15
2019-06-27T20:51:33.443Z,81.72
2019-06-27T20:52:33.442Z,81.34
2019-06-27T20:53:33.430Z,81.24
2019-06-27T20:54:33.416Z,81.43
2019-06-27T20:55:33.378Z,81.24
2019-06-27T20:56:33.358Z,81.72
2019-06-27T20:57:33.370Z,81.92
2019-06-27T20:58:33.332Z,81.92
2019-06-27T20:59:33.374Z,81.82
2019-06-27T21:00:33.291Z,81.92
2019-06-27T21:01:33.282Z,82.49
2019-06-27T21:02:33.260Z,82.35
2019-06-27T21:03:33.241Z,82.74
2019-06-27T21:04:33.255Z,82.84
2019-06-27T21:05:33.224Z,83.31
2019-06-27T21:06:33.217Z,83.22
2019-06-27T21:07:33.207Z,83.12
2019-06-27T21:08:33.179Z,83.31
2019-06-27T21:09:33.160Z,83.31
2019-06-27T21:10:33.199Z,83.70
2019-06-27T21:11:33.123Z,83.31
2019-06-27T21:12:33.117Z,83.70
2019-06-27T21:13:33.092Z,84.33
2019-06-27T21:14:33.076Z,84.42
2019-06-27T21:15:33.066Z,84.33
2019-06-27T21:16:33.044Z,84.91
2019-06-27T21:17:33.032Z,84.81
2019-06-27T21:18:33.029Z,85.10
2019-06-27T21:19:32.988Z,84.42
2019-06-27T21:20:32.977Z,84.27
2019-06-27T21:21:32.978Z,83.75
2019-06-27T21:22:32.941Z,84.27
2019-06-27T21:23:32.949Z,84.42
2019-06-27T21:24:33.047Z,84.42
2019-06-27T21:25:32.916Z,84.71
2019-06-27T21:26:32.888Z,84.66
2019-06-27T21:27:32.871Z,84.75
2019-06-27T21:28:32.855Z,84.27
2019-06-27T21:29:32.845Z,84.27
2019-06-27T21:32:08.593Z,84.08
2019-06-27T21:33:08.565Z,83.89
2019-06-27T21:33:35.364Z,84.47
2019-06-27T21:34:37.953Z,84.27
2019-06-27T21:35:35.304Z,83.89
2019-06-27T21:37:08.511Z,84.27
2019-06-27T21:38:48.392Z,84.14
2019-06-27T21:41:32.116Z,84.81
2019-06-27T21:44:15.803Z,84.81
2019-06-27T23:36:41.802Z,92.30
2019-06-27T23:37:08.583Z,92.58
2019-06-27T23:38:08.574Z,92.77
2019-06-27T23:39:08.553Z,92.35
2019-06-27T23:40:13.957Z,92.63
2019-06-27T23:41:08.506Z,93.21
2019-06-27T23:42:08.502Z,92.92
2019-06-27T23:43:08.477Z,93.49
2019-06-27T23:44:08.458Z,93.98
2019-06-27T23:45:08.454Z,93.88
2019-06-27T23:46:08.420Z,93.88
2019-06-27T23:47:08.409Z,93.98
2019-06-27T23:48:08.385Z,93.98
2019-06-27T23:49:08.368Z,94.26
2019-06-27T23:50:08.384Z,94.64
2019-06-27T23:51:08.333Z,95.17
2019-06-27T23:52:08.322Z,95.07
2019-06-27T23:53:08.310Z,95.75
2019-06-27T23:54:08.283Z,95.27
2019-06-27T23:55:08.265Z,95.94
2019-06-27T23:56:08.251Z,95.27
2019-06-27T23:57:08.228Z,95.07
2019-06-27T23:58:08.300Z,95.46
2019-06-27T23:59:08.197Z,94.74
